sensor_id;sensor_type;location;lat;lon;timestamp;P1;durP1;ratioP1;P2;durP2;ratioP2
78778;SDS011;68121;52.404;5.318;2023-04-25T00:01:46;12.13;;;1.75;;
78778;SDS011;68121;52.404;5.318;2023-04-25T00:04:12;9.25;;;1.95;;
78778;SDS011;68121;52.404;5.318;2023-04-25T00:06:38;8.15;;;1.88;;
78778;SDS011;68121;52.404;5.318;2023-04-25T00:09:05;7.32;;;1.60;;
78778;SDS011;68121;52.404;5.318;2023-04-25T00:11:35;8.75;;;2.15;;
78778;SDS011;68121;52.404;5.318;2023-04-25T00:14:02;5.50;;;1.90;;
78778;SDS011;68121;52.404;5.318;2023-04-25T00:16:29;8.60;;;1.83;;
78778;SDS011;68121;52.404;5.318;2023-04-25T00:19:00;7.07;;;1.95;;
78778;SDS011;68121;52.404;5.318;2023-04-25T00:21:28;2.83;;;1.33;;
78778;SDS011;68121;52.404;5.318;2023-04-25T00:23:56;7.55;;;1.55;;
78778;SDS011;68121;52.404;5.318;2023-04-25T00:26:22;9.02;;;1.25;;
78778;SDS011;68121;52.404;5.318;2023-04-25T00:28:48;10.60;;;2.33;;
78778;SDS011;68121;52.404;5.318;2023-04-25T00:31:14;5.55;;;1.58;;
78778;SDS011;68121;52.404;5.318;2023-04-25T00:33:41;8.90;;;2.03;;
78778;SDS011;68121;52.404;5.318;2023-04-25T00:36:07;6.32;;;2.25;;
78778;SDS011;68121;52.404;5.318;2023-04-25T00:38:33;14.18;;;1.90;;
78778;SDS011;68121;52.404;5.318;2023-04-25T00:41:00;10.23;;;1.88;;
78778;SDS011;68121;52.404;5.318;2023-04-25T00:43:26;11.23;;;1.48;;
78778;SDS011;68121;52.404;5.318;2023-04-25T00:45:52;8.73;;;1.95;;
78778;SDS011;68121;52.404;5.318;2023-04-25T00:48:21;10.82;;;1.80;;
78778;SDS011;68121;52.404;5.318;2023-04-25T00:50:52;8.95;;;1.77;;
78778;SDS011;68121;52.404;5.318;2023-04-25T00:53:22;9.85;;;1.73;;
78778;SDS011;68121;52.404;5.318;2023-04-25T00:55:50;3.45;;;1.23;;
78778;SDS011;68121;52.404;5.318;2023-04-25T00:58:17;9.57;;;1.33;;
78778;SDS011;68121;52.404;5.318;2023-04-25T01:00:44;8.48;;;1.67;;
78778;SDS011;68121;52.404;5.318;2023-04-25T01:03:12;7.30;;;1.40;;
78778;SDS011;68121;52.404;5.318;2023-04-25T01:05:40;7.50;;;2.05;;
78778;SDS011;68121;52.404;5.318;2023-04-25T01:08:07;4.15;;;1.50;;
78778;SDS011;68121;52.404;5.318;2023-04-25T01:10:33;7.10;;;1.42;;
78778;SDS011;68121;52.404;5.318;2023-04-25T01:12:59;5.10;;;2.17;;
78778;SDS011;68121;52.404;5.318;2023-04-25T01:15:26;6.18;;;1.75;;
78778;SDS011;68121;52.404;5.318;2023-04-25T01:17:52;7.85;;;1.50;;
78778;SDS011;68121;52.404;5.318;2023-04-25T01:20:19;8.13;;;1.40;;
78778;SDS011;68121;52.404;5.318;2023-04-25T01:22:48;11.13;;;1.60;;
78778;SDS011;68121;52.404;5.318;2023-04-25T01:25:15;8.90;;;1.25;;
78778;SDS011;68121;52.404;5.318;2023-04-25T01:27:42;6.47;;;1.05;;
78778;SDS011;68121;52.404;5.318;2023-04-25T01:30:09;7.15;;;1.33;;
78778;SDS011;68121;52.404;5.318;2023-04-25T01:32:35;14.02;;;1.48;;
78778;SDS011;68121;52.404;5.318;2023-04-25T01:35:08;7.97;;;1.58;;
78778;SDS011;68121;52.404;5.318;2023-04-25T01:37:42;8.18;;;1.77;;
78778;SDS011;68121;52.404;5.318;2023-04-25T01:40:09;8.13;;;1.40;;
78778;SDS011;68121;52.404;5.318;2023-04-25T01:42:38;7.25;;;1.45;;
78778;SDS011;68121;52.404;5.318;2023-04-25T01:45:07;9.70;;;1.10;;
78778;SDS011;68121;52.404;5.318;2023-04-25T01:47:34;9.90;;;1.83;;
78778;SDS011;68121;52.404;5.318;2023-04-25T01:50:03;7.05;;;1.45;;
78778;SDS011;68121;52.404;5.318;2023-04-25T01:52:31;8.60;;;1.98;;
78778;SDS011;68121;52.404;5.318;2023-04-25T01:54:57;5.63;;;0.90;;
78778;SDS011;68121;52.404;5.318;2023-04-25T01:57:25;5.47;;;1.23;;
78778;SDS011;68121;52.404;5.318;2023-04-25T01:59:51;9.00;;;1.60;;
78778;SDS011;68121;52.404;5.318;2023-04-25T02:02:19;3.72;;;1.15;;
78778;SDS011;68121;52.404;5.318;2023-04-25T02:04:45;11.73;;;1.60;;
78778;SDS011;68121;52.404;5.318;2023-04-25T02:07:11;9.40;;;1.50;;
78778;SDS011;68121;52.404;5.318;2023-04-25T02:09:37;8.73;;;2.08;;
78778;SDS011;68121;52.404;5.318;2023-04-25T02:12:03;7.20;;;1.33;;
78778;SDS011;68121;52.404;5.318;2023-04-25T02:14:29;3.70;;;0.95;;
78778;SDS011;68121;52.404;5.318;2023-04-25T02:16:55;6.75;;;1.67;;
78778;SDS011;68121;52.404;5.318;2023-04-25T02:19:22;6.75;;;1.30;;
78778;SDS011;68121;52.404;5.318;2023-04-25T02:21:48;3.03;;;1.20;;
78778;SDS011;68121;52.404;5.318;2023-04-25T02:24:14;6.53;;;1.38;;
78778;SDS011;68121;52.404;5.318;2023-04-25T02:26:40;6.65;;;1.45;;
78778;SDS011;68121;52.404;5.318;2023-04-25T02:29:06;8.73;;;1.63;;
78778;SDS011;68121;52.404;5.318;2023-04-25T02:31:32;9.32;;;1.58;;
78778;SDS011;68121;52.404;5.318;2023-04-25T02:33:58;8.38;;;1.60;;
78778;SDS011;68121;52.404;5.318;2023-04-25T02:36:24;3.75;;;1.33;;
78778;SDS011;68121;52.404;5.318;2023-04-25T02:38:51;5.07;;;1.55;;
78778;SDS011;68121;52.404;5.318;2023-04-25T02:41:17;4.80;;;1.73;;
78778;SDS011;68121;52.404;5.318;2023-04-25T02:43:43;9.40;;;1.80;;
78778;SDS011;68121;52.404;5.318;2023-04-25T02:46:09;10.15;;;1.98;;
78778;SDS011;68121;52.404;5.318;2023-04-25T02:48:36;7.28;;;1.85;;
78778;SDS011;68121;52.404;5.318;2023-04-25T02:51:02;6.55;;;1.90;;
78778;SDS011;68121;52.404;5.318;2023-04-25T02:53:28;13.85;;;2.05;;
78778;SDS011;68121;52.404;5.318;2023-04-25T02:55:54;10.48;;;1.65;;
78778;SDS011;68121;52.404;5.318;2023-04-25T02:58:23;13.27;;;1.80;;
78778;SDS011;68121;52.404;5.318;2023-04-25T03:00:49;7.63;;;1.70;;
78778;SDS011;68121;52.404;5.318;2023-04-25T03:03:15;4.75;;;1.10;;
78778;SDS011;68121;52.404;5.318;2023-04-25T03:05:43;10.88;;;1.20;;
78778;SDS011;68121;52.404;5.318;2023-04-25T03:08:10;12.05;;;2.40;;
78778;SDS011;68121;52.404;5.318;2023-04-25T03:10:36;11.38;;;1.48;;
78778;SDS011;68121;52.404;5.318;2023-04-25T03:13:02;8.63;;;1.38;;
78778;SDS011;68121;52.404;5.318;2023-04-25T03:15:28;2.47;;;1.08;;
78778;SDS011;68121;52.404;5.318;2023-04-25T03:17:54;5.95;;;1.42;;
78778;SDS011;68121;52.404;5.318;2023-04-25T03:20:20;5.43;;;1.30;;
78778;SDS011;68121;52.404;5.318;2023-04-25T03:22:46;4.20;;;1.35;;
78778;SDS011;68121;52.404;5.318;2023-04-25T03:25:12;2.92;;;0.60;;
78778;SDS011;68121;52.404;5.318;2023-04-25T03:27:38;5.15;;;0.90;;
78778;SDS011;68121;52.404;5.318;2023-04-25T03:30:05;1.65;;;0.70;;
78778;SDS011;68121;52.404;5.318;2023-04-25T03:32:32;4.82;;;1.13;;
78778;SDS011;68121;52.404;5.318;2023-04-25T03:34:58;4.13;;;1.27;;
78778;SDS011;68121;52.404;5.318;2023-04-25T03:37:24;4.38;;;0.93;;
78778;SDS011;68121;52.404;5.318;2023-04-25T03:39:50;3.70;;;0.90;;
78778;SDS011;68121;52.404;5.318;2023-04-25T03:42:16;5.03;;;1.02;;
78778;SDS011;68121;52.404;5.318;2023-04-25T03:44:43;2.17;;;0.80;;
78778;SDS011;68121;52.404;5.318;2023-04-25T03:47:09;3.67;;;0.90;;
78778;SDS011;68121;52.404;5.318;2023-04-25T03:49:35;3.03;;;0.80;;
78778;SDS011;68121;52.404;5.318;2023-04-25T03:52:02;2.78;;;0.68;;
78778;SDS011;68121;52.404;5.318;2023-04-25T03:54:28;4.53;;;0.70;;
78778;SDS011;68121;52.404;5.318;2023-04-25T03:56:55;2.63;;;1.17;;
78778;SDS011;68121;52.404;5.318;2023-04-25T03:59:21;3.03;;;0.93;;
78778;SDS011;68121;52.404;5.318;2023-04-25T04:01:47;3.95;;;1.20;;
78778;SDS011;68121;52.404;5.318;2023-04-25T04:04:13;2.80;;;0.93;;
78778;SDS011;68121;52.404;5.318;2023-04-25T04:06:39;5.88;;;1.58;;
78778;SDS011;68121;52.404;5.318;2023-04-25T04:09:05;3.33;;;0.63;;
78778;SDS011;68121;52.404;5.318;2023-04-25T04:11:35;5.82;;;1.02;;
78778;SDS011;68121;52.404;5.318;2023-04-25T04:14:04;6.32;;;0.82;;
78778;SDS011;68121;52.404;5.318;2023-04-25T04:16:31;7.22;;;1.48;;
78778;SDS011;68121;52.404;5.318;2023-04-25T04:18:57;3.47;;;1.17;;
78778;SDS011;68121;52.404;5.318;2023-04-25T04:21:23;4.05;;;0.85;;
78778;SDS011;68121;52.404;5.318;2023-04-25T04:23:49;5.78;;;0.93;;
78778;SDS011;68121;52.404;5.318;2023-04-25T04:26:15;3.45;;;1.85;;
78778;SDS011;68121;52.404;5.318;2023-04-25T04:28:43;7.40;;;1.10;;
78778;SDS011;68121;52.404;5.318;2023-04-25T04:31:12;4.07;;;1.05;;
78778;SDS011;68121;52.404;5.318;2023-04-25T04:33:40;5.82;;;1.20;;
78778;SDS011;68121;52.404;5.318;2023-04-25T04:36:06;7.43;;;1.52;;
78778;SDS011;68121;52.404;5.318;2023-04-25T04:38:33;5.63;;;1.08;;
78778;SDS011;68121;52.404;5.318;2023-04-25T04:40:59;8.77;;;1.50;;
78778;SDS011;68121;52.404;5.318;2023-04-25T04:43:25;4.25;;;0.90;;
78778;SDS011;68121;52.404;5.318;2023-04-25T04:45:51;5.13;;;0.85;;
78778;SDS011;68121;52.404;5.318;2023-04-25T04:48:17;5.03;;;0.82;;
78778;SDS011;68121;52.404;5.318;2023-04-25T04:50:44;7.22;;;1.08;;
78778;SDS011;68121;52.404;5.318;2023-04-25T04:53:12;3.88;;;0.95;;
78778;SDS011;68121;52.404;5.318;2023-04-25T04:55:39;6.65;;;1.00;;
78778;SDS011;68121;52.404;5.318;2023-04-25T04:58:06;8.15;;;1.67;;
78778;SDS011;68121;52.404;5.318;2023-04-25T05:00:33;4.97;;;1.13;;
78778;SDS011;68121;52.404;5.318;2023-04-25T05:02:59;6.97;;;0.88;;
78778;SDS011;68121;52.404;5.318;2023-04-25T05:05:25;6.13;;;0.65;;
78778;SDS011;68121;52.404;5.318;2023-04-25T05:07:51;8.98;;;0.98;;
78778;SDS011;68121;52.404;5.318;2023-04-25T05:10:18;7.07;;;0.82;;
78778;SDS011;68121;52.404;5.318;2023-04-25T05:12:44;9.55;;;1.83;;
78778;SDS011;68121;52.404;5.318;2023-04-25T05:15:11;5.10;;;1.00;;
78778;SDS011;68121;52.404;5.318;2023-04-25T05:17:37;3.80;;;0.88;;
78778;SDS011;68121;52.404;5.318;2023-04-25T05:20:05;7.47;;;1.20;;
78778;SDS011;68121;52.404;5.318;2023-04-25T05:22:32;10.38;;;1.70;;
78778;SDS011;68121;52.404;5.318;2023-04-25T05:24:58;5.13;;;1.20;;
78778;SDS011;68121;52.404;5.318;2023-04-25T05:27:24;4.95;;;1.30;;
78778;SDS011;68121;52.404;5.318;2023-04-25T05:29:50;7.57;;;1.27;;
78778;SDS011;68121;52.404;5.318;2023-04-25T05:32:17;15.70;;;1.45;;
78778;SDS011;68121;52.404;5.318;2023-04-25T05:34:43;7.75;;;1.38;;
78778;SDS011;68121;52.404;5.318;2023-04-25T05:37:12;7.20;;;1.17;;
78778;SDS011;68121;52.404;5.318;2023-04-25T05:39:38;6.45;;;0.85;;
78778;SDS011;68121;52.404;5.318;2023-04-25T05:42:04;4.55;;;0.93;;
78778;SDS011;68121;52.404;5.318;2023-04-25T05:44:30;6.70;;;0.88;;
78778;SDS011;68121;52.404;5.318;2023-04-25T05:46:56;5.20;;;1.02;;
78778;SDS011;68121;52.404;5.318;2023-04-25T05:49:22;8.38;;;1.35;;
78778;SDS011;68121;52.404;5.318;2023-04-25T05:51:48;5.53;;;1.42;;
78778;SDS011;68121;52.404;5.318;2023-04-25T05:54:15;6.88;;;0.93;;
78778;SDS011;68121;52.404;5.318;2023-04-25T05:56:41;8.45;;;1.45;;
78778;SDS011;68121;52.404;5.318;2023-04-25T05:59:07;2.90;;;0.93;;
78778;SDS011;68121;52.404;5.318;2023-04-25T06:01:33;7.00;;;1.38;;
78778;SDS011;68121;52.404;5.318;2023-04-25T06:03:59;8.68;;;1.27;;
78778;SDS011;68121;52.404;5.318;2023-04-25T06:06:25;8.68;;;1.15;;
78778;SDS011;68121;52.404;5.318;2023-04-25T06:08:52;5.38;;;0.93;;
78778;SDS011;68121;52.404;5.318;2023-04-25T06:11:18;6.55;;;1.17;;
78778;SDS011;68121;52.404;5.318;2023-04-25T06:13:45;5.18;;;1.15;;
78778;SDS011;68121;52.404;5.318;2023-04-25T06:16:12;9.07;;;1.05;;
78778;SDS011;68121;52.404;5.318;2023-04-25T06:18:38;1.50;;;0.73;;
78778;SDS011;68121;52.404;5.318;2023-04-25T06:21:04;3.30;;;0.73;;
78778;SDS011;68121;52.404;5.318;2023-04-25T06:23:30;4.63;;;0.98;;
78778;SDS011;68121;52.404;5.318;2023-04-25T06:25:57;5.85;;;0.80;;
78778;SDS011;68121;52.404;5.318;2023-04-25T06:28:23;3.47;;;0.90;;
78778;SDS011;68121;52.404;5.318;2023-04-25T06:30:50;4.70;;;1.00;;
78778;SDS011;68121;52.404;5.318;2023-04-25T06:33:16;7.13;;;0.77;;
78778;SDS011;68121;52.404;5.318;2023-04-25T06:35:42;5.40;;;1.23;;
78778;SDS011;68121;52.404;5.318;2023-04-25T06:38:08;4.25;;;1.13;;
78778;SDS011;68121;52.404;5.318;2023-04-25T06:40:34;6.55;;;1.13;;
78778;SDS011;68121;52.404;5.318;2023-04-25T06:43:00;7.07;;;1.00;;
78778;SDS011;68121;52.404;5.318;2023-04-25T06:45:26;6.00;;;1.08;;
78778;SDS011;68121;52.404;5.318;2023-04-25T06:47:52;3.78;;;1.45;;
78778;SDS011;68121;52.404;5.318;2023-04-25T06:50:18;8.32;;;1.05;;
78778;SDS011;68121;52.404;5.318;2023-04-25T06:52:44;3.03;;;0.85;;
78778;SDS011;68121;52.404;5.318;2023-04-25T06:55:10;5.47;;;0.90;;
78778;SDS011;68121;52.404;5.318;2023-04-25T06:57:36;5.75;;;1.25;;
78778;SDS011;68121;52.404;5.318;2023-04-25T07:00:03;3.92;;;0.73;;
78778;SDS011;68121;52.404;5.318;2023-04-25T07:02:35;2.50;;;1.00;;
78778;SDS011;68121;52.404;5.318;2023-04-25T07:05:01;5.40;;;1.00;;
78778;SDS011;68121;52.404;5.318;2023-04-25T07:07:32;3.13;;;0.80;;
78778;SDS011;68121;52.404;5.318;2023-04-25T07:09:58;6.63;;;1.20;;
78778;SDS011;68121;52.404;5.318;2023-04-25T07:12:24;6.43;;;1.20;;
78778;SDS011;68121;52.404;5.318;2023-04-25T07:14:50;6.75;;;0.90;;
78778;SDS011;68121;52.404;5.318;2023-04-25T07:17:16;2.33;;;0.50;;
78778;SDS011;68121;52.404;5.318;2023-04-25T07:19:42;2.97;;;0.70;;
78778;SDS011;68121;52.404;5.318;2023-04-25T07:22:09;4.57;;;0.52;;
78778;SDS011;68121;52.404;5.318;2023-04-25T07:24:35;6.30;;;0.80;;
78778;SDS011;68121;52.404;5.318;2023-04-25T07:27:01;3.65;;;0.73;;
78778;SDS011;68121;52.404;5.318;2023-04-25T07:29:27;4.88;;;0.80;;
78778;SDS011;68121;52.404;5.318;2023-04-25T07:31:54;4.10;;;0.60;;
78778;SDS011;68121;52.404;5.318;2023-04-25T07:34:20;2.95;;;0.40;;
78778;SDS011;68121;52.404;5.318;2023-04-25T07:36:46;1.15;;;0.30;;
78778;SDS011;68121;52.404;5.318;2023-04-25T07:39:12;3.70;;;0.50;;
78778;SDS011;68121;52.404;5.318;2023-04-25T07:41:38;2.22;;;0.63;;
78778;SDS011;68121;52.404;5.318;2023-04-25T07:44:04;3.88;;;0.90;;
78778;SDS011;68121;52.404;5.318;2023-04-25T07:46:30;5.35;;;1.70;;
78778;SDS011;68121;52.404;5.318;2023-04-25T07:48:56;4.05;;;0.68;;
78778;SDS011;68121;52.404;5.318;2023-04-25T07:51:22;3.85;;;0.82;;
78778;SDS011;68121;52.404;5.318;2023-04-25T07:53:48;6.72;;;0.80;;
78778;SDS011;68121;52.404;5.318;2023-04-25T07:56:14;1.05;;;0.57;;
78778;SDS011;68121;52.404;5.318;2023-04-25T07:58:40;5.65;;;0.85;;
78778;SDS011;68121;52.404;5.318;2023-04-25T08:01:06;4.85;;;0.70;;
78778;SDS011;68121;52.404;5.318;2023-04-25T08:03:32;5.03;;;0.80;;
78778;SDS011;68121;52.404;5.318;2023-04-25T08:05:58;1.90;;;0.70;;
78778;SDS011;68121;52.404;5.318;2023-04-25T08:08:24;2.60;;;0.55;;
78778;SDS011;68121;52.404;5.318;2023-04-25T08:10:51;3.42;;;0.60;;
78778;SDS011;68121;52.404;5.318;2023-04-25T08:13:17;1.15;;;0.50;;
78778;SDS011;68121;52.404;5.318;2023-04-25T08:15:43;5.20;;;1.00;;
78778;SDS011;68121;52.404;5.318;2023-04-25T08:18:09;7.97;;;0.88;;
78778;SDS011;68121;52.404;5.318;2023-04-25T08:20:35;2.60;;;0.50;;
78778;SDS011;68121;52.404;5.318;2023-04-25T08:23:01;2.65;;;0.60;;
78778;SDS011;68121;52.404;5.318;2023-04-25T08:25:27;4.57;;;0.80;;
78778;SDS011;68121;52.404;5.318;2023-04-25T08:27:53;15.40;;;2.08;;
78778;SDS011;68121;52.404;5.318;2023-04-25T08:30:19;3.97;;;0.85;;
78778;SDS011;68121;52.404;5.318;2023-04-25T08:32:46;5.63;;;0.75;;
78778;SDS011;68121;52.404;5.318;2023-04-25T08:35:12;3.63;;;0.50;;
78778;SDS011;68121;52.404;5.318;2023-04-25T08:37:38;4.63;;;0.93;;
78778;SDS011;68121;52.404;5.318;2023-04-25T08:40:04;5.13;;;1.02;;
78778;SDS011;68121;52.404;5.318;2023-04-25T08:42:33;1.77;;;0.60;;
78778;SDS011;68121;52.404;5.318;2023-04-25T08:45:02;6.22;;;0.93;;
78778;SDS011;68121;52.404;5.318;2023-04-25T08:47:29;2.95;;;0.60;;
78778;SDS011;68121;52.404;5.318;2023-04-25T08:49:58;4.53;;;0.82;;
78778;SDS011;68121;52.404;5.318;2023-04-25T08:52:27;1.45;;;0.47;;
78778;SDS011;68121;52.404;5.318;2023-04-25T08:54:59;3.00;;;0.77;;
78778;SDS011;68121;52.404;5.318;2023-04-25T08:57:26;1.05;;;0.40;;
78778;SDS011;68121;52.404;5.318;2023-04-25T08:59:53;4.30;;;0.70;;
78778;SDS011;68121;52.404;5.318;2023-04-25T09:02:20;3.95;;;0.75;;
78778;SDS011;68121;52.404;5.318;2023-04-25T09:04:47;2.70;;;0.52;;
78778;SDS011;68121;52.404;5.318;2023-04-25T09:07:15;1.75;;;0.40;;
78778;SDS011;68121;52.404;5.318;2023-04-25T09:09:44;2.55;;;0.40;;
78778;SDS011;68121;52.404;5.318;2023-04-25T09:12:10;2.53;;;0.40;;
78778;SDS011;68121;52.404;5.318;2023-04-25T09:14:36;1.02;;;0.30;;
78778;SDS011;68121;52.404;5.318;2023-04-25T09:17:03;1.98;;;0.30;;
78778;SDS011;68121;52.404;5.318;2023-04-25T09:19:34;2.50;;;0.63;;
78778;SDS011;68121;52.404;5.318;2023-04-25T09:22:02;2.40;;;0.40;;
78778;SDS011;68121;52.404;5.318;2023-04-25T09:27:03;1.60;;;0.73;;
78778;SDS011;68121;52.404;5.318;2023-04-25T09:29:33;4.30;;;0.55;;
78778;SDS011;68121;52.404;5.318;2023-04-25T09:32:17;1.77;;;0.55;;
78778;SDS011;68121;52.404;5.318;2023-04-25T09:34:52;2.05;;;0.50;;
78778;SDS011;68121;52.404;5.318;2023-04-25T09:37:24;2.20;;;0.43;;
78778;SDS011;68121;52.404;5.318;2023-04-25T09:39:55;2.88;;;0.60;;
78778;SDS011;68121;52.404;5.318;2023-04-25T09:42:26;1.55;;;0.50;;
78778;SDS011;68121;52.404;5.318;2023-04-25T09:44:54;3.45;;;0.60;;
78778;SDS011;68121;52.404;5.318;2023-04-25T09:47:22;6.25;;;0.70;;
78778;SDS011;68121;52.404;5.318;2023-04-25T09:49:51;2.72;;;0.50;;
78778;SDS011;68121;52.404;5.318;2023-04-25T09:52:18;3.38;;;0.70;;
78778;SDS011;68121;52.404;5.318;2023-04-25T09:54:46;3.15;;;0.60;;
78778;SDS011;68121;52.404;5.318;2023-04-25T09:57:14;3.72;;;0.60;;
78778;SDS011;68121;52.404;5.318;2023-04-25T09:59:48;5.90;;;0.93;;
78778;SDS011;68121;52.404;5.318;2023-04-25T10:02:17;6.70;;;0.95;;
78778;SDS011;68121;52.404;5.318;2023-04-25T10:04:49;3.15;;;0.50;;
78778;SDS011;68121;52.404;5.318;2023-04-25T10:07:18;2.60;;;0.50;;
78778;SDS011;68121;52.404;5.318;2023-04-25T10:09:47;4.97;;;0.73;;
78778;SDS011;68121;52.404;5.318;2023-04-25T10:12:16;4.22;;;0.60;;
78778;SDS011;68121;52.404;5.318;2023-04-25T10:14:42;4.03;;;0.63;;
78778;SDS011;68121;52.404;5.318;2023-04-25T10:17:10;4.25;;;0.77;;
78778;SDS011;68121;52.404;5.318;2023-04-25T10:19:39;4.93;;;0.88;;
78778;SDS011;68121;52.404;5.318;2023-04-25T10:22:11;3.47;;;0.60;;
78778;SDS011;68121;52.404;5.318;2023-04-25T10:27:22;4.15;;;0.98;;
78778;SDS011;68121;52.404;5.318;2023-04-25T10:30:07;5.78;;;0.73;;
78778;SDS011;68121;52.404;5.318;2023-04-25T10:32:43;2.70;;;0.50;;
78778;SDS011;68121;52.404;5.318;2023-04-25T10:35:11;5.63;;;0.75;;
78778;SDS011;68121;52.404;5.318;2023-04-25T10:37:37;3.78;;;1.10;;
78778;SDS011;68121;52.404;5.318;2023-04-25T10:40:08;9.48;;;0.80;;
78778;SDS011;68121;52.404;5.318;2023-04-25T10:42:35;2.63;;;0.70;;
78778;SDS011;68121;52.404;5.318;2023-04-25T10:45:02;4.80;;;1.42;;
78778;SDS011;68121;52.404;5.318;2023-04-25T10:47:34;7.47;;;0.80;;
78778;SDS011;68121;52.404;5.318;2023-04-25T10:50:05;3.72;;;0.80;;
78778;SDS011;68121;52.404;5.318;2023-04-25T10:54:59;5.97;;;1.25;;
78778;SDS011;68121;52.404;5.318;2023-04-25T10:57:44;4.97;;;1.05;;
78778;SDS011;68121;52.404;5.318;2023-04-25T11:00:16;3.67;;;0.50;;
78778;SDS011;68121;52.404;5.318;2023-04-25T11:02:47;5.43;;;0.70;;
78778;SDS011;68121;52.404;5.318;2023-04-25T11:05:29;5.40;;;0.77;;
78778;SDS011;68121;52.404;5.318;2023-04-25T11:08:00;4.88;;;1.10;;
78778;SDS011;68121;52.404;5.318;2023-04-25T11:10:29;8.85;;;0.98;;
78778;SDS011;68121;52.404;5.318;2023-04-25T11:12:57;4.60;;;1.20;;
78778;SDS011;68121;52.404;5.318;2023-04-25T11:15:23;3.15;;;1.17;;
78778;SDS011;68121;52.404;5.318;2023-04-25T11:17:53;3.05;;;0.80;;
78778;SDS011;68121;52.404;5.318;2023-04-25T11:20:20;2.58;;;0.70;;
78778;SDS011;68121;52.404;5.318;2023-04-25T11:22:47;2.63;;;0.60;;
78778;SDS011;68121;52.404;5.318;2023-04-25T11:25:13;4.80;;;0.47;;
78778;SDS011;68121;52.404;5.318;2023-04-25T11:27:53;2.80;;;0.90;;
78778;SDS011;68121;52.404;5.318;2023-04-25T11:30:21;3.33;;;1.02;;
78778;SDS011;68121;52.404;5.318;2023-04-25T11:32:48;3.33;;;0.50;;
78778;SDS011;68121;52.404;5.318;2023-04-25T11:35:15;4.72;;;0.65;;
78778;SDS011;68121;52.404;5.318;2023-04-25T11:37:42;3.67;;;0.65;;
78778;SDS011;68121;52.404;5.318;2023-04-25T11:40:09;1.88;;;0.57;;
78778;SDS011;68121;52.404;5.318;2023-04-25T11:42:43;3.38;;;0.80;;
78778;SDS011;68121;52.404;5.318;2023-04-25T11:45:11;1.88;;;0.70;;
78778;SDS011;68121;52.404;5.318;2023-04-25T11:47:38;4.45;;;0.43;;
78778;SDS011;68121;52.404;5.318;2023-04-25T11:50:05;2.22;;;0.40;;
78778;SDS011;68121;52.404;5.318;2023-04-25T11:52:43;1.77;;;0.45;;
78778;SDS011;68121;52.404;5.318;2023-04-25T11:55:15;3.22;;;0.63;;
78778;SDS011;68121;52.404;5.318;2023-04-25T11:57:43;5.13;;;0.63;;
78778;SDS011;68121;52.404;5.318;2023-04-25T12:00:15;3.85;;;0.70;;
78778;SDS011;68121;52.404;5.318;2023-04-25T12:02:43;6.72;;;0.90;;
78778;SDS011;68121;52.404;5.318;2023-04-25T12:05:10;1.17;;;0.32;;
78778;SDS011;68121;52.404;5.318;2023-04-25T12:07:37;4.32;;;0.82;;
78778;SDS011;68121;52.404;5.318;2023-04-25T12:10:04;2.13;;;0.40;;
78778;SDS011;68121;52.404;5.318;2023-04-25T12:12:32;3.28;;;0.32;;
78778;SDS011;68121;52.404;5.318;2023-04-25T12:17:55;8.13;;;0.80;;
78778;SDS011;68121;52.404;5.318;2023-04-25T12:20:23;5.90;;;1.00;;
78778;SDS011;68121;52.404;5.318;2023-04-25T12:22:50;2.33;;;0.50;;
78778;SDS011;68121;52.404;5.318;2023-04-25T12:33:40;3.42;;;0.70;;
78778;SDS011;68121;52.404;5.318;2023-04-25T12:36:08;4.07;;;0.70;;
78778;SDS011;68121;52.404;5.318;2023-04-25T12:38:36;3.50;;;0.50;;
78778;SDS011;68121;52.404;5.318;2023-04-25T12:41:03;2.03;;;0.60;;
78778;SDS011;68121;52.404;5.318;2023-04-25T12:43:30;3.40;;;0.82;;
78778;SDS011;68121;52.404;5.318;2023-04-25T12:45:56;6.70;;;1.00;;
78778;SDS011;68121;52.404;5.318;2023-04-25T12:48:22;6.38;;;1.20;;
78778;SDS011;68121;52.404;5.318;2023-04-25T12:50:49;4.05;;;0.90;;
78778;SDS011;68121;52.404;5.318;2023-04-25T12:53:17;3.15;;;0.68;;
78778;SDS011;68121;52.404;5.318;2023-04-25T12:55:45;3.85;;;0.63;;
78778;SDS011;68121;52.404;5.318;2023-04-25T12:58:12;2.75;;;0.60;;
78778;SDS011;68121;52.404;5.318;2023-04-25T13:00:42;2.03;;;0.80;;
78778;SDS011;68121;52.404;5.318;2023-04-25T13:03:09;2.40;;;0.45;;
78778;SDS011;68121;52.404;5.318;2023-04-25T13:05:36;2.15;;;0.70;;
78778;SDS011;68121;52.404;5.318;2023-04-25T13:08:03;3.20;;;0.77;;
78778;SDS011;68121;52.404;5.318;2023-04-25T13:10:29;1.40;;;0.40;;
78778;SDS011;68121;52.404;5.318;2023-04-25T13:12:56;3.58;;;0.80;;
78778;SDS011;68121;52.404;5.318;2023-04-25T13:15:24;2.83;;;0.60;;
78778;SDS011;68121;52.404;5.318;2023-04-25T13:17:50;2.47;;;0.65;;
78778;SDS011;68121;52.404;5.318;2023-04-25T13:20:16;3.47;;;0.80;;
78778;SDS011;68121;52.404;5.318;2023-04-25T13:22:44;4.40;;;0.90;;
78778;SDS011;68121;52.404;5.318;2023-04-25T13:25:11;2.05;;;0.70;;
78778;SDS011;68121;52.404;5.318;2023-04-25T13:27:37;4.50;;;0.60;;
78778;SDS011;68121;52.404;5.318;2023-04-25T13:30:04;2.40;;;0.60;;
78778;SDS011;68121;52.404;5.318;2023-04-25T13:32:36;5.53;;;0.82;;
78778;SDS011;68121;52.404;5.318;2023-04-25T13:35:03;4.47;;;0.70;;
78778;SDS011;68121;52.404;5.318;2023-04-25T13:37:30;5.35;;;1.00;;
78778;SDS011;68121;52.404;5.318;2023-04-25T13:40:07;3.42;;;0.55;;
78778;SDS011;68121;52.404;5.318;2023-04-25T13:42:35;3.92;;;0.50;;
78778;SDS011;68121;52.404;5.318;2023-04-25T13:45:02;4.43;;;0.60;;
78778;SDS011;68121;52.404;5.318;2023-04-25T13:47:28;3.97;;;1.08;;
78778;SDS011;68121;52.404;5.318;2023-04-25T13:49:55;3.80;;;0.63;;
78778;SDS011;68121;52.404;5.318;2023-04-25T13:52:22;2.72;;;0.80;;
78778;SDS011;68121;52.404;5.318;2023-04-25T13:54:51;5.43;;;0.90;;
78778;SDS011;68121;52.404;5.318;2023-04-25T13:57:17;6.40;;;1.00;;
78778;SDS011;68121;52.404;5.318;2023-04-25T13:59:43;4.53;;;0.70;;
78778;SDS011;68121;52.404;5.318;2023-04-25T14:02:09;2.67;;;0.60;;
78778;SDS011;68121;52.404;5.318;2023-04-25T14:04:35;5.47;;;0.90;;
78778;SDS011;68121;52.404;5.318;2023-04-25T14:07:02;5.18;;;0.57;;
78778;SDS011;68121;52.404;5.318;2023-04-25T14:09:28;3.65;;;0.70;;
78778;SDS011;68121;52.404;5.318;2023-04-25T14:11:55;1.80;;;0.63;;
78778;SDS011;68121;52.404;5.318;2023-04-25T14:14:21;2.85;;;0.77;;
78778;SDS011;68121;52.404;5.318;2023-04-25T14:16:48;2.47;;;0.73;;
78778;SDS011;68121;52.404;5.318;2023-04-25T14:19:16;3.53;;;0.77;;
78778;SDS011;68121;52.404;5.318;2023-04-25T14:21:45;2.60;;;0.40;;
78778;SDS011;68121;52.404;5.318;2023-04-25T14:24:13;3.38;;;1.33;;
78778;SDS011;68121;52.404;5.318;2023-04-25T14:26:39;1.73;;;0.93;;
78778;SDS011;68121;52.404;5.318;2023-04-25T14:29:06;3.20;;;0.60;;
78778;SDS011;68121;52.404;5.318;2023-04-25T14:31:33;3.10;;;0.70;;
78778;SDS011;68121;52.404;5.318;2023-04-25T14:33:59;4.38;;;0.80;;
78778;SDS011;68121;52.404;5.318;2023-04-25T14:36:26;3.35;;;0.80;;
78778;SDS011;68121;52.404;5.318;2023-04-25T14:38:53;4.63;;;0.90;;
78778;SDS011;68121;52.404;5.318;2023-04-25T14:41:19;3.50;;;0.60;;
78778;SDS011;68121;52.404;5.318;2023-04-25T14:43:45;6.47;;;1.08;;
78778;SDS011;68121;52.404;5.318;2023-04-25T14:46:11;3.40;;;0.63;;
78778;SDS011;68121;52.404;5.318;2023-04-25T14:48:37;1.75;;;0.68;;
78778;SDS011;68121;52.404;5.318;2023-04-25T14:51:04;2.22;;;0.63;;
78778;SDS011;68121;52.404;5.318;2023-04-25T14:53:30;1.85;;;0.47;;
78778;SDS011;68121;52.404;5.318;2023-04-25T14:55:57;1.00;;;0.40;;
78778;SDS011;68121;52.404;5.318;2023-04-25T14:58:23;2.45;;;0.50;;
78778;SDS011;68121;52.404;5.318;2023-04-25T15:00:49;3.13;;;0.60;;
78778;SDS011;68121;52.404;5.318;2023-04-25T15:03:16;1.45;;;0.40;;
78778;SDS011;68121;52.404;5.318;2023-04-25T15:05:42;1.80;;;0.30;;
78778;SDS011;68121;52.404;5.318;2023-04-25T15:08:09;2.95;;;0.82;;